Time;durP1;ratioP1;P1;durP2;ratioP2;P2;SDS_P1;SDS_P2;PMS_P1;PMS_P2;Temp;Humidity;BMP_temperature;BMP_pressure;BME280_temperature;BME280_humidity;BME280_pressure;Samples;Min_cycle;Max_cycle;Signal;HPM_P1;HPM_P2
2023/05/08 04:23:34;;;;;;;22.38;10.82;;;;;;;13.35;91.34;102180.13;4969480;28;102817;-29
2023/05/08 04:26:01;;;;;;;27.65;12.57;;;;;;;13.34;91.62;102180.22;4971441;28;101093;-31
2023/05/08 04:28:27;;;;;;;28.63;13.18;;;;;;;13.36;91.60;102186.47;4972611;28;96462;-30
2023/05/08 04:30:54;;;;;;;25.45;12.50;;;;;;;13.36;91.44;102187.31;4970944;28;96891;-31
2023/05/08 04:33:20;;;;;;;27.92;13.38;;;;;;;13.41;91.29;102188.94;4970573;28;100765;-30
2023/05/08 04:35:46;;;;;;;27.20;13.70;;;;;;;13.40;91.51;102182.63;4972264;28;97846;-30
2023/05/08 04:38:11;;;;;;;28.38;15.23;;;;;;;13.40;91.19;102188.06;4972310;28;96643;-30
2023/05/08 04:40:37;;;;;;;25.90;13.73;;;;;;;13.44;91.53;102186.94;4972239;28;96833;-30
2023/05/08 04:43:02;;;;;;;27.40;13.95;;;;;;;13.43;91.80;102193.34;4971696;28;97970;-30
2023/05/08 04:45:27;;;;;;;29.15;13.50;;;;;;;13.45;91.67;102193.28;4972375;28;97319;-30
2023/05/08 04:47:52;;;;;;;30.13;13.73;;;;;;;13.46;91.51;102193.16;4970906;28;96629;-30
2023/05/08 04:50:19;;;;;;;29.98;15.02;;;;;;;13.47;91.46;102200.41;4972126;28;111560;-29
2023/05/08 04:52:44;;;;;;;27.38;13.60;;;;;;;13.49;91.33;102201.19;4972306;28;98070;-30
2023/05/08 04:55:09;;;;;;;27.27;14.07;;;;;;;13.50;91.59;102204.81;4972057;28;99371;-29
2023/05/08 04:57:35;;;;;;;27.42;14.30;;;;;;;13.48;91.86;102196.69;4971562;28;96568;-31
2023/05/08 05:00:00;;;;;;;31.83;13.98;;;;;;;13.52;91.46;102211.06;4972083;28;99845;-29
2023/05/08 05:02:25;;;;;;;29.77;13.68;;;;;;;13.48;92.05;102202.16;4971786;28;97457;-30
2023/05/08 05:04:51;;;;;;;28.67;13.02;;;;;;;13.50;91.84;102212.97;4972195;28;97762;-30
2023/05/08 05:07:16;;;;;;;28.63;13.57;;;;;;;13.51;91.83;102210.13;4971713;28;99277;-30
2023/05/08 05:09:41;;;;;;;26.50;13.52;;;;;;;13.49;92.03;102219.34;4971837;28;109517;-30
2023/05/08 05:12:07;;;;;;;31.35;13.88;;;;;;;13.47;92.06;102215.84;4971600;28;102603;-30
2023/05/08 05:14:32;;;;;;;28.58;13.73;;;;;;;13.50;92.17;102226.56;4972219;28;98635;-31
2023/05/08 05:16:57;;;;;;;25.05;12.10;;;;;;;13.49;92.60;102222.97;4972045;28;96653;-30
2023/05/08 05:19:23;;;;;;;29.02;12.18;;;;;;;13.52;92.38;102227.38;4972059;28;96840;-31
2023/05/08 05:21:48;;;;;;;26.60;13.77;;;;;;;13.52;92.27;102225.53;4971449;28;98026;-29
2023/05/08 05:24:14;;;;;;;26.92;12.90;;;;;;;13.54;92.78;102236.34;4971067;28;98682;-30
2023/05/08 05:26:40;;;;;;;25.38;12.65;;;;;;;13.53;92.76;102240.91;4971707;28;96719;-29
2023/05/08 05:29:05;;;;;;;22.67;11.82;;;;;;;13.57;92.47;102239.78;4972016;28;96623;-30
2023/05/08 05:31:30;;;;;;;27.77;13.18;;;;;;;13.58;92.28;102243.38;4971739;28;97477;-30
2023/05/08 05:33:56;;;;;;;28.60;13.75;;;;;;;13.57;92.16;102247.06;4971486;28;99185;-31
2023/05/08 05:36:21;;;;;;;25.73;11.88;;;;;;;13.56;91.96;102250.75;4971921;28;96840;-31
2023/05/08 05:38:47;;;;;;;22.55;10.52;;;;;;;13.57;92.55;102241.63;4972033;28;96855;-30
2023/05/08 05:41:12;;;;;;;23.52;11.23;;;;;;;13.58;92.66;102248.81;4971161;28;99360;-30
2023/05/08 05:43:37;;;;;;;16.75;7.95;;;;;;;13.60;92.76;102260.53;4971464;28;99096;-30
2023/05/08 05:46:07;;;;;;;18.58;7.75;;;;;;;13.60;92.28;102258.66;4970585;28;111254;-29
2023/05/08 05:48:32;;;;;;;15.48;7.53;;;;;;;13.60;92.12;102264.13;4970270;28;96941;-29
2023/05/08 05:50:58;;;;;;;18.05;8.00;;;;;;;13.62;92.25;102271.34;4971493;28;98836;-30
2023/05/08 05:53:23;;;;;;;16.27;7.00;;;;;;;13.62;91.73;102272.22;4973661;28;97690;-30
2023/05/08 05:55:49;;;;;;;14.98;6.82;;;;;;;13.65;91.91;102280.22;4974558;28;97180;-29
2023/05/08 05:58:15;;;;;;;15.02;6.13;;;;;;;13.65;91.42;102276.63;4973100;28;96729;-29
2023/05/08 06:00:41;;;;;;;14.07;6.45;;;;;;;13.67;91.39;102271.97;4974274;28;99472;-30
2023/05/08 06:03:06;;;;;;;16.55;6.93;;;;;;;13.67;92.02;102280.16;4973735;28;101254;-30
2023/05/08 06:05:32;;;;;;;13.98;6.85;;;;;;;13.66;92.33;102278.38;4974592;28;96702;-30
2023/05/08 06:07:58;;;;;;;18.23;7.47;;;;;;;13.66;91.72;102281.09;4974488;28;106264;-31
2023/05/08 06:10:23;;;;;;;19.08;6.10;;;;;;;13.71;91.87;102279.03;4972397;28;101288;-32
2023/05/08 06:12:49;;;;;;;17.77;6.65;;;;;;;13.71;91.32;102279.91;4974652;28;97797;-29
2023/05/08 06:15:14;;;;;;;15.05;5.82;;;;;;;13.74;91.78;102274.31;4974762;28;96539;-30
2023/05/08 06:17:40;;;;;;;19.92;6.82;;;;;;;13.76;91.43;102275.09;4957017;28;96911;-30
2023/05/08 06:20:07;;;;;;;18.17;6.88;;;;;;;13.79;90.76;102265.91;4974595;28;97958;-29
2023/05/08 06:22:32;;;;;;;17.85;7.30;;;;;;;13.83;91.46;102263.91;4973039;28;100742;-29
2023/05/08 06:24:58;;;;;;;21.85;7.65;;;;;;;13.86;92.09;102266.47;4974353;28;96694;-30
2023/05/08 06:27:23;;;;;;;18.17;6.35;;;;;;;13.89;91.72;102256.25;4974746;28;96567;-30
2023/05/08 06:29:51;;;;;;;20.23;6.60;;;;;;;13.92;92.00;102267.03;4974293;28;97986;-29
2023/05/08 06:32:17;;;;;;;18.35;7.05;;;;;;;13.95;91.31;102271.44;4972677;28;98873;-30
2023/05/08 06:34:43;;;;;;;18.13;7.00;;;;;;;14.02;91.53;102267.41;4972518;28;96615;-30
2023/05/08 06:37:08;;;;;;;18.95;7.20;;;;;;;14.08;91.25;102263.47;4972896;28;96793;-30
2023/05/08 06:39:34;;;;;;;18.67;7.13;;;;;;;14.07;91.20;102259.88;4973543;28;106473;-32
2023/05/08 06:41:59;;;;;;;19.83;6.80;;;;;;;14.12;91.13;102270.53;4974041;28;99222;-31
2023/05/08 06:44:24;;;;;;;20.33;6.95;;;;;;;14.11;90.68;102263.28;4974327;28;96805;-31
2023/05/08 06:46:49;;;;;;;18.50;7.15;;;;;;;14.16;91.19;102266.69;4973919;28;96561;-30
2023/05/08 06:49:15;;;;;;;19.77;7.35;;;;;;;14.16;91.06;102262.09;4973168;28;118998;-29
2023/05/08 06:51:40;;;;;;;16.35;6.55;;;;;;;14.17;90.99;102258.41;4974204;28;99109;-30
2023/05/08 06:54:07;;;;;;;21.85;6.78;;;;;;;14.23;90.78;102266.25;4973711;28;96676;-29
2023/05/08 06:56:33;;;;;;;13.65;5.78;;;;;;;14.25;90.35;102257.97;4973637;28;96827;-30
2023/05/08 06:58:58;;;;;;;16.98;6.45;;;;;;;14.29;90.50;102265.03;4973358;28;97418;-29
2023/05/08 07:01:24;;;;;;;20.27;6.57;;;;;;;14.32;90.63;102258.53;4973721;28;97285;-29
2023/05/08 07:03:49;;;;;;;17.77;6.43;;;;;;;14.39;89.95;102266.28;4973566;28;96788;-31
2023/05/08 07:06:15;;;;;;;18.67;6.90;;;;;;;14.42;89.84;102268.00;4973537;28;96893;-30
2023/05/08 07:08:40;;;;;;;23.48;7.53;;;;;;;14.44;90.33;102257.84;4973533;28;97663;-30
2023/05/08 07:11:06;;;;;;;16.67;6.30;;;;;;;14.50;90.43;102260.25;4973722;28;97821;-29
2023/05/08 07:13:32;;;;;;;21.90;6.72;;;;;;;14.53;91.01;102256.47;4973706;28;96575;-30
2023/05/08 07:15:57;;;;;;;21.42;7.45;;;;;;;14.64;90.89;102259.53;4973717;28;96860;-31
2023/05/08 07:18:22;;;;;;;18.25;6.82;;;;;;;14.74;90.10;102258.03;4973269;28;99133;-31
2023/05/08 07:20:48;;;;;;;22.08;6.72;;;;;;;14.86;91.07;102259.19;4973251;28;99188;-29
2023/05/08 07:23:13;;;;;;;17.35;6.43;;;;;;;14.91;89.82;102257.06;4972452;28;101445;-29
2023/05/08 07:25:38;;;;;;;22.42;7.22;;;;;;;14.95;90.04;102252.31;4973314;28;104947;-30
2023/05/08 07:28:04;;;;;;;23.25;7.50;;;;;;;14.92;90.38;102252.47;4973281;28;99715;-32
2023/05/08 07:30:29;;;;;;;18.17;7.18;;;;;;;15.00;89.60;102255.66;4973098;28;97335;-30
2023/05/08 07:32:56;;;;;;;19.45;7.88;;;;;;;15.10;89.28;102251.44;4973567;28;96644;-30
2023/05/08 07:35:23;;;;;;;20.65;7.97;;;;;;;15.21;89.34;102251.69;4973179;28;96857;-29
2023/05/08 07:37:50;;;;;;;20.67;7.60;;;;;;;15.38;88.65;102255.28;4971515;28;98978;-29
2023/05/08 07:40:15;;;;;;;19.55;7.65;;;;;;;15.49;87.58;102250.03;4973634;28;97233;-31
2023/05/08 07:42:42;;;;;;;20.83;7.70;;;;;;;15.66;87.05;102258.13;4972918;28;96585;-29
2023/05/08 07:45:10;;;;;;;20.27;8.23;;;;;;;15.77;87.56;102248.41;4973010;28;96846;-30
2023/05/08 07:47:36;;;;;;;23.33;7.95;;;;;;;15.74;86.76;102248.59;4972492;28;99385;-29
2023/05/08 07:50:02;;;;;;;21.13;7.40;;;;;;;15.82;87.29;102251.72;4955261;28;98917;-29
2023/05/08 07:52:31;;;;;;;22.90;7.35;;;;;;;15.91;86.77;102249.31;4971549;28;96765;-29
2023/05/08 07:54:57;;;;;;;22.42;7.68;;;;;;;15.87;86.85;102258.69;4973058;28;96800;-29
2023/05/08 07:57:23;;;;;;;18.17;8.07;;;;;;;16.11;87.03;102255.38;4968332;28;98376;-30
2023/05/08 07:59:51;;;;;;;15.73;7.07;;;;;;;16.23;86.11;102246.44;4972749;28;97317;-30
2023/05/08 08:02:20;;;;;;;20.97;7.80;;;;;;;16.24;85.99;102256.41;4972666;28;96477;-30
2023/05/08 08:04:48;;;;;;;22.13;7.57;;;;;;;16.23;85.66;102254.66;4971866;28;97063;-29
2023/05/08 08:07:13;;;;;;;21.83;8.13;;;;;;;16.34;85.83;102262.16;4955246;28;101077;-30
2023/05/08 08:09:41;;;;;;;18.08;8.18;;;;;;;16.48;84.87;102242.13;5003764;28;97403;-31
2023/05/08 08:12:08;;;;;;;17.15;7.82;;;;;;;16.50;84.31;102253.88;4972178;28;96635;-29
2023/05/08 08:14:37;;;;;;;20.83;8.18;;;;;;;16.32;85.41;102255.91;4955724;28;96987;-29
2023/05/08 08:17:11;;;;;;;19.20;7.82;;;;;;;16.13;86.62;102262.53;4971818;28;99122;-30
2023/05/08 08:19:39;;;;;;;19.55;7.53;;;;;;;16.07;87.00;102254.72;4971581;28;98991;-29
2023/05/08 08:22:07;;;;;;;18.08;7.57;;;;;;;16.13;87.60;102253.44;4972648;28;96442;-29
2023/05/08 08:24:34;;;;;;;19.92;7.78;;;;;;;16.17;86.65;102256.88;4970767;28;97054;-31
2023/05/08 08:27:05;;;;;;;22.88;8.20;;;;;;;16.23;86.79;102257.38;4971164;28;100446;-29
2023/05/08 08:29:31;;;;;;;18.85;8.07;;;;;;;16.22;86.32;102260.19;4972915;28;97809;-30
2023/05/08 08:31:57;;;;;;;19.55;8.18;;;;;;;16.24;86.47;102258.25;4954387;28;97082;-31
2023/05/08 08:34:22;;;;;;;16.00;7.88;;;;;;;16.27;86.41;102249.84;4971504;28;96734;-29
2023/05/08 08:36:48;;;;;;;19.80;7.47;;;;;;;16.28;86.13;102255.22;4971759;28;98244;-31
2023/05/08 08:39:13;;;;;;;19.10;6.85;;;;;;;16.33;86.35;102247.63;4970623;28;101362;-30
2023/05/08 08:41:39;;;;;;;22.20;7.80;;;;;;;16.43;85.94;102253.38;4972242;28;96523;-29
2023/05/08 08:44:05;;;;;;;21.77;7.95;;;;;;;16.54;86.32;102256.31;4954883;28;96913;-30
2023/05/08 08:46:33;;;;;;;20.35;8.10;;;;;;;16.50;85.97;102249.28;4971878;28;97433;-29
2023/05/08 08:49:02;;;;;;;19.65;8.23;;;;;;;16.46;85.94;102253.16;4970906;28;101216;-30
2023/05/08 08:51:34;;;;;;;20.95;8.43;;;;;;;16.55;85.24;102244.38;4970874;28;96746;-29
2023/05/08 08:54:26;;;;;;;24.83;9.07;;;;;;;16.64;85.59;102247.50;4969863;28;96885;-30
2023/05/08 08:56:54;;;;;;;;;;;;;;;16.63;85.94;102246.59;4974061;28;97501;-30
2023/05/08 08:59:22;;;;;;;25.38;8.68;;;;;;;16.75;85.25;102234.00;4970695;28;101084;-30
2023/05/08 09:01:52;;;;;;;24.92;10.45;;;;;;;16.90;85.90;102245.81;4971788;28;96699;-30
2023/05/08 09:04:17;;;;;;;30.58;11.55;;;;;;;16.97;84.95;102239.84;4972483;28;96780;-30
2023/05/08 09:06:44;;;;;;;27.23;9.60;;;;;;;17.17;83.94;102243.97;4972099;28;97933;-30
2023/05/08 09:09:11;;;;;;;26.75;10.48;;;;;;;17.28;82.64;102246.03;4970536;28;100887;-29
2023/05/08 09:11:39;;;;;;;33.55;11.07;;;;;;;17.35;82.98;102247.34;4970551;28;97384;-31
2023/05/08 09:14:04;;;;;;;23.50;10.27;;;;;;;17.35;83.38;102246.44;4970609;28;96787;-29
2023/05/08 09:16:29;;;;;;;30.38;10.98;;;;;;;17.41;83.60;102249.66;4971924;28;97123;-30
2023/05/08 09:18:55;;;;;;;34.33;12.48;;;;;;;17.45;83.23;102249.44;4971950;28;100291;-29
2023/05/08 09:21:22;;;;;;;30.55;11.80;;;;;;;17.46;83.31;102249.34;4971156;28;103744;-29
2023/05/08 09:24:00;;;;;;;34.75;10.95;;;;;;;17.46;82.35;102253.97;4969926;28;98474;-30
2023/05/08 09:26:33;;;;;;;34.17;11.23;;;;;;;17.38;83.16;102255.34;4971371;28;97588;-30
2023/05/08 09:29:20;;;;;;;25.60;10.60;;;;;;;17.55;83.52;102251.47;4972817;28;99204;-30
2023/05/08 09:31:47;;;;;;;30.20;11.23;;;;;;;17.60;82.98;102259.38;4973418;28;97042;-32
2023/05/08 09:34:31;;;;;;;25.92;11.45;;;;;;;17.59;82.98;102257.59;4972173;28;97121;-30
2023/05/08 09:37:11;;;;;;;36.17;12.35;;;;;;;17.54;82.07;102251.56;4973421;28;100768;-29
2023/05/08 09:39:40;;;;;;;23.88;9.48;;;;;;;17.34;82.14;102266.63;4973280;28;101114;-29
2023/05/08 09:42:05;;;;;;;32.85;10.55;;;;;;;17.26;82.45;102264.41;4973436;28;96713;-29
2023/05/08 09:44:51;;;;;;;29.30;11.25;;;;;;;17.27;83.52;102260.66;4973759;28;96878;-30
2023/05/08 09:47:21;;;;;;;24.20;9.88;;;;;;;17.34;83.39;102256.53;4974843;28;98978;-30
2023/05/08 09:50:00;;;;;;;24.20;10.07;;;;;;;17.44;83.16;102253.19;4974697;28;99586;-30
2023/05/08 09:52:27;;;;;;;25.13;9.43;;;;;;;17.48;82.49;102252.88;4974427;28;96605;-29
2023/05/08 09:55:00;;;;;;;22.02;9.55;;;;;;;17.62;82.75;102258.28;4973450;28;98547;-32
2023/05/08 09:57:26;;;;;;;25.42;9.15;;;;;;;17.63;82.21;102261.88;4974546;28;99630;-30
2023/05/08 10:00:00;;;;;;;22.65;8.90;;;;;;;17.68;81.95;102259.69;4974729;28;99187;-30
2023/05/08 10:02:25;;;;;;;21.33;8.85;;;;;;;17.70;82.74;102271.44;4973262;28;96667;-30
2023/05/08 10:04:50;;;;;;;26.60;9.88;;;;;;;17.63;82.10;102259.16;4974988;28;96789;-29
2023/05/08 10:07:26;;;;;;;19.25;8.35;;;;;;;17.59;82.78;102263.06;4974825;28;97926;-29
2023/05/08 10:10:03;;;;;;;20.38;9.52;;;;;;;17.50;82.70;102269.22;4974989;28;97324;-30
2023/05/08 10:12:29;;;;;;;26.63;10.05;;;;;;;17.46;83.32;102267.66;4973339;28;96597;-30
2023/05/08 10:14:55;;;;;;;24.23;9.73;;;;;;;17.54;82.67;102260.69;4973367;28;96764;-30
2023/05/08 10:17:26;;;;;;;28.95;10.50;;;;;;;17.56;82.30;102263.28;4972519;28;100859;-30
2023/05/08 10:19:59;;;;;;;22.15;9.02;;;;;;;17.61;82.52;102269.34;4973182;28;101413;-31
2023/05/08 10:22:25;;;;;;;25.45;8.95;;;;;;;17.60;82.70;102267.59;4974764;28;96647;-32
2023/05/08 10:24:55;;;;;;;24.50;9.18;;;;;;;17.69;82.22;102266.97;4972565;28;97017;-30
2023/05/08 10:27:37;;;;;;;25.27;9.48;;;;;;;17.81;82.28;102259.78;4972858;28;101100;-30
2023/05/08 10:30:03;;;;;;;20.58;8.57;;;;;;;17.98;81.93;102259.47;4972737;28;101149;-30
2023/05/08 10:32:37;;;;;;;20.25;9.05;;;;;;;17.99;80.49;102269.44;4972904;28;96961;-31
2023/05/08 10:35:06;;;;;;;21.55;9.27;;;;;;;18.05;80.56;102259.94;4973176;28;96755;-30
2023/05/08 10:37:32;;;;;;;19.30;7.70;;;;;;;17.94;79.64;102262.53;4973980;28;99590;-31
2023/05/08 10:39:59;;;;;;;19.67;8.07;;;;;;;17.75;79.98;102255.56;4971744;28;101745;-30
2023/05/08 10:42:25;;;;;;;16.63;8.13;;;;;;;17.63;80.85;102259.16;4972228;28;96893;-30
2023/05/08 10:44:52;;;;;;;22.85;8.75;;;;;;;17.69;81.31;102256.00;4972771;28;96856;-30
2023/05/08 10:47:39;;;;;;;18.88;8.35;;;;;;;17.70;81.81;102252.25;4972314;28;100898;-30
2023/05/08 10:50:18;;;;;;;14.73;7.38;;;;;;;17.83;81.07;102255.09;4972534;28;100603;-30
2023/05/08 10:52:56;;;;;;;17.23;7.60;;;;;;;17.88;79.43;102249.28;4972766;28;96653;-31
2023/05/08 10:55:29;;;;;;;19.95;8.20;;;;;;;17.93;80.86;102253.44;4972676;28;96779;-30
2023/05/08 10:58:05;;;;;;;19.58;8.60;;;;;;;17.93;79.70;102249.81;4972393;28;101056;-30
2023/05/08 11:00:55;;;;;;;18.63;8.27;;;;;;;18.16;78.76;102245.44;4973928;28;99251;-30
2023/05/08 11:03:26;;;;;;;23.50;9.55;;;;;;;18.36;79.52;102246.75;4973872;28;96498;-30
2023/05/08 11:05:53;;;;;;;16.45;8.52;;;;;;;18.43;79.37;102246.19;4973831;28;96817;-30
2023/05/08 11:08:23;;;;;;;22.83;8.88;;;;;;;18.59;78.51;102243.22;4971675;28;100822;-30
2023/05/08 11:11:01;;;;;;;19.38;8.07;;;;;;;18.91;76.54;102241.88;4972215;28;101026;-30
2023/05/08 11:13:40;;;;;;;14.20;7.60;;;;;;;18.87;75.46;102233.84;4972469;28;96810;-30
2023/05/08 11:16:06;;;;;;;16.55;7.75;;;;;;;18.59;76.08;102232.25;4973878;28;96539;-30
2023/05/08 11:18:31;;;;;;;15.43;7.70;;;;;;;18.65;77.15;102240.00;4972024;28;100913;-31
2023/05/08 11:21:05;;;;;;;16.73;7.43;;;;;;;18.95;77.23;102235.13;4973428;28;97289;-29
2023/05/08 11:23:32;;;;;;;15.85;7.97;;;;;;;19.19;76.28;102237.94;4971802;28;96643;-32
2023/05/08 11:26:01;;;;;;;15.35;7.22;;;;;;;19.28;75.49;102228.94;4973888;28;96599;-30
2023/05/08 11:28:30;;;;;;;21.17;7.93;;;;;;;19.21;75.90;102231.31;4971879;28;101133;-30
2023/05/08 11:30:56;;;;;;;19.52;7.93;;;;;;;19.26;75.88;102234.59;4971676;28;101170;-31
2023/05/08 11:33:27;;;;;;;15.10;7.32;;;;;;;19.30;76.10;102229.72;4972742;28;96737;-31
2023/05/08 11:36:15;;;;;;;18.73;8.20;;;;;;;19.49;74.87;102227.31;4971921;28;96797;-31
2023/05/08 11:38:42;;;;;;;16.77;8.07;;;;;;;19.69;73.75;102234.03;4973388;28;97072;-30
2023/05/08 11:41:10;;;;;;;17.42;8.05;;;;;;;19.53;74.18;102234.31;4971853;28;99128;-30
2023/05/08 11:44:01;;;;;;;18.40;8.70;;;;;;;19.51;73.84;102228.06;4971784;28;96901;-30
2023/05/08 11:46:52;;;;;;;20.80;8.35;;;;;;;19.42;74.81;102234.25;4973363;28;96905;-31
2023/05/08 11:49:23;;;;;;;18.00;7.75;;;;;;;19.39;74.65;102229.00;4973365;28;97999;-30
2023/05/08 11:51:53;;;;;;;15.40;8.30;;;;;;;19.37;74.22;102227.38;4973450;28;98021;-31
2023/05/08 11:54:20;;;;;;;14.68;8.18;;;;;;;19.26;74.50;102223.59;4973038;28;96595;-30
2023/05/08 11:56:47;;;;;;;12.80;7.18;;;;;;;19.24;75.33;102216.47;4971721;28;96850;-30
2023/05/08 11:59:12;;;;;;;16.20;8.15;;;;;;;19.36;74.92;102220.16;4971017;28;100933;-30
2023/05/08 12:01:38;;;;;;;12.38;7.15;;;;;;;19.48;75.35;102227.44;4972678;28;97831;-31
2023/05/08 12:04:05;;;;;;;15.18;7.70;;;;;;;19.57;73.97;102223.06;4972813;28;96531;-30
2023/05/08 12:06:32;;;;;;;13.20;7.80;;;;;;;19.45;73.18;102222.16;4971415;28;96931;-30
2023/05/08 12:08:59;;;;;;;16.60;8.32;;;;;;;19.41;73.89;102217.91;4971315;28;101332;-30
2023/05/08 12:11:25;;;;;;;15.63;8.02;;;;;;;19.32;74.55;102216.75;4971265;28;98917;-30
2023/05/08 12:13:51;;;;;;;15.20;8.27;;;;;;;19.13;74.50;102208.16;4971413;28;96512;-29
2023/05/08 12:16:16;;;;;;;15.45;7.63;;;;;;;19.08;74.13;102211.25;4971676;28;96941;-31
2023/05/08 12:18:42;;;;;;;14.52;7.00;;;;;;;19.12;74.98;102220.16;4972794;28;97819;-31
2023/05/08 12:21:10;;;;;;;15.27;8.07;;;;;;;19.36;74.91;102210.03;4970906;28;100974;-29
2023/05/08 12:23:35;;;;;;;17.48;8.60;;;;;;;19.51;74.51;102202.47;4970340;28;97096;-30
2023/05/08 12:26:01;;;;;;;17.73;9.57;;;;;;;19.51;73.55;102203.31;4971128;28;96987;-31
2023/05/08 12:28:27;;;;;;;17.70;8.25;;;;;;;19.40;74.38;102194.16;4972731;28;97865;-31
2023/05/08 12:30:53;;;;;;;18.90;9.07;;;;;;;19.37;73.77;102203.53;4970801;28;98893;-30
2023/05/08 12:33:19;;;;;;;20.52;9.00;;;;;;;19.66;73.93;102205.88;4971178;28;96701;-32
2023/05/08 12:35:45;;;;;;;20.30;9.70;;;;;;;19.80;72.31;102197.44;4971121;28;96815;-30
2023/05/08 12:38:10;;;;;;;24.17;10.70;;;;;;;19.76;72.34;102201.47;4972329;28;97928;-30
2023/05/08 12:40:51;;;;;;;23.70;10.15;;;;;;;19.73;72.69;102204.44;4972764;28;96953;-29
2023/05/08 12:43:17;;;;;;;20.90;9.15;;;;;;;19.81;71.93;102201.97;4972439;28;96709;-30
2023/05/08 12:45:43;;;;;;;28.80;11.45;;;;;;;19.90;72.90;102203.09;4971110;28;96860;-30
2023/05/08 12:48:14;;;;;;;36.45;13.20;;;;;;;19.92;72.54;102201.97;4971737;28;97526;-31
2023/05/08 12:50:48;;;;;;;39.72;13.48;;;;;;;20.00;72.27;102200.47;4970843;28;100755;-30
2023/05/08 12:53:16;;;;;;;45.45;15.30;;;;;;;20.22;71.02;102189.50;4972490;28;96628;-30
2023/05/08 12:55:56;;;;;;;44.85;15.60;;;;;;;20.25;71.78;102192.00;4970932;28;96849;-30
2023/05/08 12:58:27;;;;;;;42.60;15.07;;;;;;;20.29;71.20;102181.63;4971863;28;98935;-30
2023/05/08 13:01:01;;;;;;;47.40;16.20;;;;;;;20.42;71.20;102185.13;4970603;28;100848;-30
2023/05/08 13:03:28;;;;;;;56.35;17.58;;;;;;;20.70;71.09;102186.50;4977146;28;96601;-30
2023/05/08 13:05:56;;;;;;;58.10;18.08;;;;;;;20.93;70.70;102180.97;4977522;28;96847;-31
2023/05/08 13:08:51;;;;;;;59.03;18.77;;;;;;;20.98;67.90;102176.78;4977417;28;100708;-30
2023/05/08 13:11:28;;;;;;;60.33;17.70;;;;;;;21.02;69.53;102171.03;4978087;28;98141;-30
2023/05/08 13:13:53;;;;;;;60.65;19.77;;;;;;;20.98;69.60;102174.03;4976709;28;97171;-30
2023/05/08 13:16:18;;;;;;;66.07;19.80;;;;;;;20.88;69.68;102175.84;4978298;28;96853;-30
2023/05/08 13:18:44;;;;;;;65.78;19.20;;;;;;;20.49;69.49;102167.09;4978668;28;98033;-31
2023/05/08 13:21:09;;;;;;;58.35;19.25;;;;;;;20.56;69.94;102159.25;4978032;28;108858;-32
2023/05/08 13:23:34;;;;;;;57.80;19.30;;;;;;;20.34;69.89;102169.25;4978114;28;96741;-31
2023/05/08 13:25:59;;;;;;;65.18;20.85;;;;;;;20.45;70.36;102167.47;4977981;28;112340;-30
2023/05/08 13:28:27;;;;;;;54.92;17.85;;;;;;;20.42;69.86;102163.09;4977039;28;99164;-30
2023/05/08 13:30:53;;;;;;;56.97;18.13;;;;;;;20.49;70.08;102168.97;4978431;28;98904;-31
2023/05/08 13:33:18;;;;;;;71.90;20.17;;;;;;;20.62;70.20;102163.34;4978149;28;102548;-30
2023/05/08 13:35:43;;;;;;;71.07;21.42;;;;;;;20.62;69.02;102164.25;4978226;28;96858;-32
2023/05/08 13:38:09;;;;;;;60.47;19.15;;;;;;;20.56;70.38;102168.38;4977601;28;97913;-30
2023/05/08 13:40:34;;;;;;;65.15;20.02;;;;;;;20.56;69.04;102167.50;4978060;28;99435;-30
2023/05/08 13:43:02;;;;;;;53.38;19.10;;;;;;;20.54;69.73;102173.09;4985283;28;96724;-30
2023/05/08 13:45:30;;;;;;;59.65;18.88;;;;;;;20.61;69.14;102162.47;4998021;28;96847;-31
2023/05/08 13:47:57;;;;;;;58.55;17.88;;;;;;;20.44;69.24;102155.59;4997343;28;97980;-30
2023/05/08 13:50:23;;;;;;;52.70;18.10;;;;;;;20.40;70.35;102164.22;4995363;28;98775;-30
2023/05/08 13:52:49;;;;;;;51.30;17.05;;;;;;;20.37;70.44;102157.09;4980067;28;96592;-30
2023/05/08 13:55:15;;;;;;;52.25;16.98;;;;;;;20.38;70.80;102158.88;4996638;28;96898;-30
2023/05/08 13:57:43;;;;;;;61.20;18.60;;;;;;;20.35;69.99;102148.09;4997643;28;99592;-30
2023/05/08 14:00:10;;;;;;;51.38;18.10;;;;;;;20.34;70.24;102149.97;4996511;28;98886;-30
2023/05/08 14:02:38;;;;;;;40.92;15.30;;;;;;;20.14;69.38;102150.72;4995091;28;97051;-30
2023/05/08 14:05:06;;;;;;;48.95;16.60;;;;;;;20.07;71.48;102149.47;4996095;28;97369;-30
2023/05/08 14:07:33;;;;;;;40.92;14.25;;;;;;;20.02;70.96;102159.97;4979709;28;101179;-31
2023/05/08 14:09:59;;;;;;;37.70;14.20;;;;;;;19.93;70.92;102153.34;4996809;28;99860;-31
2023/05/08 14:12:24;;;;;;;35.20;12.95;;;;;;;19.92;71.38;102152.47;4996418;28;96596;-30
2023/05/08 14:14:50;;;;;;;41.00;14.95;;;;;;;19.91;71.64;102156.22;4993810;28;96835;-30
2023/05/08 14:17:16;;;;;;;34.97;13.32;;;;;;;19.83;71.67;102152.31;4992770;28;99086;-30
2023/05/08 14:19:44;;;;;;;29.80;12.73;;;;;;;19.83;71.84;102161.47;4994490;28;98166;-31
2023/05/08 14:22:13;;;;;;;30.45;12.20;;;;;;;19.80;71.47;102158.06;4993217;28;96739;-30
2023/05/08 14:24:41;;;;;;;27.50;10.55;;;;;;;19.75;71.41;102155.69;4994183;28;96766;-30
2023/05/08 14:27:08;;;;;;;24.23;10.32;;;;;;;19.69;70.96;102151.56;4991720;28;98932;-31
2023/05/08 14:29:33;;;;;;;25.92;11.15;;;;;;;19.64;71.68;102148.28;4976138;28;99285;-31
2023/05/08 14:32:01;;;;;;;26.92;11.05;;;;;;;19.59;71.50;102155.13;4993536;28;96883;-30
2023/05/08 14:34:26;;;;;;;20.58;8.45;;;;;;;19.59;71.45;102144.13;4992539;28;96889;-30
2023/05/08 14:36:51;;;;;;;24.88;9.77;;;;;;;19.60;70.06;102143.16;4993618;28;97875;-29
2023/05/08 14:39:17;;;;;;;26.77;9.70;;;;;;;19.55;72.10;102150.88;4993691;28;97308;-30
2023/05/08 14:41:42;;;;;;;24.20;10.27;;;;;;;19.61;71.12;102147.63;4994100;28;105001;-30
2023/05/08 14:44:07;;;;;;;24.17;9.70;;;;;;;19.61;72.33;102136.63;4994700;28;96856;-30
2023/05/08 14:46:33;;;;;;;21.05;8.63;;;;;;;19.65;70.84;102150.03;4993748;28;99214;-30
2023/05/08 14:48:58;;;;;;;22.73;8.23;;;;;;;19.55;71.66;102143.50;4993691;28;107106;-30
2023/05/08 14:51:23;;;;;;;22.63;8.48;;;;;;;19.53;71.09;102137.25;4993264;28;96895;-30
2023/05/08 14:53:49;;;;;;;21.60;8.48;;;;;;;19.50;71.11;102137.50;4993572;28;102263;-30
2023/05/08 14:56:14;;;;;;;20.70;9.07;;;;;;;19.50;71.78;102137.50;4993499;28;97891;-31
2023/05/08 14:58:39;;;;;;;24.75;9.77;;;;;;;19.50;71.43;102141.13;4988659;28;99269;-30
2023/05/08 15:01:05;;;;;;;25.50;9.70;;;;;;;19.50;71.54;102132.88;4973185;28;113359;-32
2023/05/08 15:03:30;;;;;;;20.98;9.68;;;;;;;19.49;71.32;102131.09;4973708;28;96720;-30
2023/05/08 15:05:55;;;;;;;19.83;8.10;;;;;;;19.56;71.21;102141.63;4973571;28;103729;-30
2023/05/08 15:08:20;;;;;;;21.63;7.30;;;;;;;19.55;71.19;102140.75;4973488;28;97820;-30
2023/05/08 15:10:46;;;;;;;13.88;6.22;;;;;;;19.53;70.13;102135.38;4979521;28;96514;-30
2023/05/08 15:13:11;;;;;;;17.73;7.47;;;;;;;19.60;70.00;102140.41;4973506;28;104659;-30
2023/05/08 15:15:36;;;;;;;17.58;6.82;;;;;;;19.55;70.49;102131.66;4985731;28;98004;-31
2023/05/08 15:18:02;;;;;;;14.60;6.47;;;;;;;19.56;69.74;102144.38;4978399;28;97837;-31
2023/05/08 15:20:27;;;;;;;14.23;6.10;;;;;;;19.52;69.91;102129.97;4979873;28;96637;-31
2023/05/08 15:22:53;;;;;;;13.82;6.47;;;;;;;19.63;70.41;102137.41;4973625;28;96820;-31
2023/05/08 15:25:19;;;;;;;16.40;6.45;;;;;;;19.62;69.31;102130.16;4972647;28;99364;-31
2023/05/08 15:27:44;;;;;;;12.02;5.65;;;;;;;19.63;70.08;102142.91;4973551;28;97877;-30
2023/05/08 15:30:10;;;;;;;13.35;6.00;;;;;;;19.70;70.63;102139.56;4976106;28;96791;-31
2023/05/08 15:32:37;;;;;;;13.98;6.10;;;;;;;19.84;70.38;102143.97;4980619;28;96904;-31
2023/05/08 15:35:02;;;;;;;14.20;6.93;;;;;;;19.89;69.80;102147.22;4993027;28;99357;-32
2023/05/08 15:37:27;;;;;;;17.08;6.82;;;;;;;;;;4972352;28;97771;-30
2023/05/08 15:39:53;;;;;;;17.05;7.15;;;;;;;19.74;69.70;102131.97;4972704;28;96533;-30